sensor_id;sensor_type;location;lat;lon;timestamp;P1;durP1;ratioP1;P2;durP2;ratioP2
12556;SDS011;6344;49.932;8.308;2024-03-29T00:01:02;4.63;;;3.03;;
12556;SDS011;6344;49.932;8.308;2024-03-29T00:03:28;5.97;;;3.10;;
12556;SDS011;6344;49.932;8.308;2024-03-29T00:05:54;6.47;;;3.90;;
12556;SDS011;6344;49.932;8.308;2024-03-29T00:08:21;3.50;;;3.13;;
12556;SDS011;6344;49.932;8.308;2024-03-29T00:10:47;4.37;;;2.60;;
12556;SDS011;6344;49.932;8.308;2024-03-29T00:13:13;6.87;;;3.93;;
12556;SDS011;6344;49.932;8.308;2024-03-29T00:15:39;6.90;;;3.43;;
12556;SDS011;6344;49.932;8.308;2024-03-29T00:18:07;12.50;;;4.60;;
12556;SDS011;6344;49.932;8.308;2024-03-29T00:20:33;6.40;;;4.00;;
12556;SDS011;6344;49.932;8.308;2024-03-29T00:22:59;7.20;;;4.90;;
12556;SDS011;6344;49.932;8.308;2024-03-29T00:25:25;7.83;;;3.63;;
12556;SDS011;6344;49.932;8.308;2024-03-29T00:27:51;7.13;;;3.90;;
12556;SDS011;6344;49.932;8.308;2024-03-29T00:30:18;7.07;;;4.50;;
12556;SDS011;6344;49.932;8.308;2024-03-29T00:32:44;4.90;;;4.00;;
12556;SDS011;6344;49.932;8.308;2024-03-29T00:35:11;7.67;;;4.63;;
12556;SDS011;6344;49.932;8.308;2024-03-29T00:37:38;5.20;;;3.63;;
12556;SDS011;6344;49.932;8.308;2024-03-29T00:40:04;6.53;;;4.60;;
12556;SDS011;6344;49.932;8.308;2024-03-29T00:42:31;6.17;;;4.10;;
12556;SDS011;6344;49.932;8.308;2024-03-29T00:44:57;8.27;;;4.20;;
12556;SDS011;6344;49.932;8.308;2024-03-29T00:47:23;4.77;;;4.10;;
12556;SDS011;6344;49.932;8.308;2024-03-29T00:49:49;5.60;;;4.63;;
12556;SDS011;6344;49.932;8.308;2024-03-29T00:52:17;4.13;;;3.53;;
12556;SDS011;6344;49.932;8.308;2024-03-29T00:54:43;6.53;;;4.73;;
12556;SDS011;6344;49.932;8.308;2024-03-29T00:57:09;10.27;;;5.37;;
12556;SDS011;6344;49.932;8.308;2024-03-29T00:59:35;8.50;;;5.80;;
12556;SDS011;6344;49.932;8.308;2024-03-29T01:02:01;6.20;;;5.13;;
12556;SDS011;6344;49.932;8.308;2024-03-29T01:04:28;9.47;;;5.77;;
12556;SDS011;6344;49.932;8.308;2024-03-29T01:06:54;5.47;;;4.87;;
12556;SDS011;6344;49.932;8.308;2024-03-29T01:09:21;12.80;;;5.83;;
12556;SDS011;6344;49.932;8.308;2024-03-29T01:11:49;4.23;;;3.43;;
12556;SDS011;6344;49.932;8.308;2024-03-29T01:14:15;8.83;;;6.00;;
12556;SDS011;6344;49.932;8.308;2024-03-29T01:16:42;8.27;;;5.00;;
12556;SDS011;6344;49.932;8.308;2024-03-29T01:19:08;6.03;;;5.33;;
12556;SDS011;6344;49.932;8.308;2024-03-29T01:21:34;6.03;;;4.40;;
12556;SDS011;6344;49.932;8.308;2024-03-29T01:24:00;6.77;;;4.80;;
12556;SDS011;6344;49.932;8.308;2024-03-29T01:26:28;9.10;;;4.60;;
12556;SDS011;6344;49.932;8.308;2024-03-29T01:28:54;6.13;;;4.20;;
12556;SDS011;6344;49.932;8.308;2024-03-29T01:31:21;6.28;;;3.78;;
12556;SDS011;6344;49.932;8.308;2024-03-29T01:33:47;5.60;;;4.00;;
12556;SDS011;6344;49.932;8.308;2024-03-29T01:36:14;5.00;;;4.23;;
12556;SDS011;6344;49.932;8.308;2024-03-29T01:38:40;5.27;;;3.83;;
12556;SDS011;6344;49.932;8.308;2024-03-29T01:41:06;5.80;;;4.33;;
12556;SDS011;6344;49.932;8.308;2024-03-29T01:43:33;5.07;;;3.63;;
12556;SDS011;6344;49.932;8.308;2024-03-29T01:46:00;4.70;;;3.60;;
12556;SDS011;6344;49.932;8.308;2024-03-29T01:48:28;4.33;;;3.20;;
12556;SDS011;6344;49.932;8.308;2024-03-29T01:50:56;8.00;;;4.33;;
12556;SDS011;6344;49.932;8.308;2024-03-29T01:53:24;4.77;;;4.37;;
12556;SDS011;6344;49.932;8.308;2024-03-29T01:55:52;3.53;;;3.20;;
12556;SDS011;6344;49.932;8.308;2024-03-29T01:58:19;4.20;;;3.90;;
12556;SDS011;6344;49.932;8.308;2024-03-29T02:00:50;5.13;;;3.87;;
12556;SDS011;6344;49.932;8.308;2024-03-29T02:03:18;4.40;;;3.80;;
12556;SDS011;6344;49.932;8.308;2024-03-29T02:05:45;4.50;;;4.20;;
12556;SDS011;6344;49.932;8.308;2024-03-29T02:08:13;4.30;;;3.90;;
12556;SDS011;6344;49.932;8.308;2024-03-29T02:10:41;7.30;;;4.47;;
12556;SDS011;6344;49.932;8.308;2024-03-29T02:13:08;4.20;;;3.80;;
12556;SDS011;6344;49.932;8.308;2024-03-29T02:15:36;4.50;;;3.63;;
12556;SDS011;6344;49.932;8.308;2024-03-29T02:18:04;4.55;;;3.70;;
12556;SDS011;6344;49.932;8.308;2024-03-29T02:20:31;4.13;;;3.73;;
12556;SDS011;6344;49.932;8.308;2024-03-29T02:23:02;3.83;;;3.53;;
12556;SDS011;6344;49.932;8.308;2024-03-29T02:25:30;5.73;;;3.50;;
12556;SDS011;6344;49.932;8.308;2024-03-29T02:27:58;4.80;;;4.00;;
12556;SDS011;6344;49.932;8.308;2024-03-29T02:30:27;4.33;;;3.97;;
12556;SDS011;6344;49.932;8.308;2024-03-29T02:32:56;5.73;;;3.50;;
12556;SDS011;6344;49.932;8.308;2024-03-29T02:35:23;5.13;;;4.00;;
12556;SDS011;6344;49.932;8.308;2024-03-29T02:37:50;3.93;;;3.53;;
12556;SDS011;6344;49.932;8.308;2024-03-29T02:40:18;3.40;;;3.10;;
12556;SDS011;6344;49.932;8.308;2024-03-29T02:42:47;3.93;;;3.53;;
12556;SDS011;6344;49.932;8.308;2024-03-29T02:45:14;5.20;;;4.10;;
12556;SDS011;6344;49.932;8.308;2024-03-29T02:47:41;4.70;;;3.93;;
12556;SDS011;6344;49.932;8.308;2024-03-29T02:50:08;6.10;;;3.80;;
12556;SDS011;6344;49.932;8.308;2024-03-29T02:52:35;6.67;;;3.17;;
12556;SDS011;6344;49.932;8.308;2024-03-29T02:55:02;8.40;;;4.20;;
12556;SDS011;6344;49.932;8.308;2024-03-29T02:57:29;8.00;;;4.50;;
12556;SDS011;6344;49.932;8.308;2024-03-29T02:59:56;3.17;;;2.97;;
12556;SDS011;6344;49.932;8.308;2024-03-29T03:02:23;4.30;;;3.90;;
12556;SDS011;6344;49.932;8.308;2024-03-29T03:04:49;5.70;;;4.23;;
12556;SDS011;6344;49.932;8.308;2024-03-29T03:07:16;3.67;;;3.37;;
12556;SDS011;6344;49.932;8.308;2024-03-29T03:10:01;8.50;;;6.27;;
12556;SDS011;6344;49.932;8.308;2024-03-29T03:12:46;4.13;;;3.83;;
12556;SDS011;6344;49.932;8.308;2024-03-29T03:15:14;5.63;;;4.33;;
12556;SDS011;6344;49.932;8.308;2024-03-29T03:17:41;9.43;;;4.03;;
12556;SDS011;6344;49.932;8.308;2024-03-29T03:20:09;5.67;;;3.97;;
12556;SDS011;6344;49.932;8.308;2024-03-29T03:22:35;5.20;;;3.90;;
12556;SDS011;6344;49.932;8.308;2024-03-29T03:25:02;5.10;;;4.30;;
12556;SDS011;6344;49.932;8.308;2024-03-29T03:27:28;7.30;;;4.37;;
12556;SDS011;6344;49.932;8.308;2024-03-29T03:29:55;4.63;;;3.40;;
12556;SDS011;6344;49.932;8.308;2024-03-29T03:32:24;5.17;;;4.33;;
12556;SDS011;6344;49.932;8.308;2024-03-29T03:34:50;6.73;;;3.97;;
12556;SDS011;6344;49.932;8.308;2024-03-29T03:37:17;4.50;;;4.10;;
12556;SDS011;6344;49.932;8.308;2024-03-29T03:39:43;4.20;;;3.80;;
12556;SDS011;6344;49.932;8.308;2024-03-29T03:42:10;4.97;;;4.20;;
12556;SDS011;6344;49.932;8.308;2024-03-29T03:44:36;6.00;;;3.83;;
12556;SDS011;6344;49.932;8.308;2024-03-29T03:47:03;6.20;;;4.60;;
12556;SDS011;6344;49.932;8.308;2024-03-29T03:49:31;4.70;;;4.20;;
12556;SDS011;6344;49.932;8.308;2024-03-29T03:51:58;4.77;;;4.33;;
12556;SDS011;6344;49.932;8.308;2024-03-29T03:54:24;3.43;;;3.13;;
12556;SDS011;6344;49.932;8.308;2024-03-29T03:56:51;3.67;;;3.33;;
12556;SDS011;6344;49.932;8.308;2024-03-29T03:59:17;4.03;;;3.70;;
12556;SDS011;6344;49.932;8.308;2024-03-29T04:01:44;6.07;;;3.90;;
12556;SDS011;6344;49.932;8.308;2024-03-29T04:04:10;4.03;;;3.67;;
12556;SDS011;6344;49.932;8.308;2024-03-29T04:06:38;6.80;;;4.23;;
12556;SDS011;6344;49.932;8.308;2024-03-29T04:09:04;4.60;;;4.20;;
12556;SDS011;6344;49.932;8.308;2024-03-29T04:11:32;5.13;;;3.75;;
12556;SDS011;6344;49.932;8.308;2024-03-29T04:13:58;4.60;;;4.20;;
12556;SDS011;6344;49.932;8.308;2024-03-29T04:16:25;4.40;;;3.50;;
12556;SDS011;6344;49.932;8.308;2024-03-29T04:18:51;6.32;;;4.22;;
12556;SDS011;6344;49.932;8.308;2024-03-29T04:21:18;5.80;;;4.60;;
12556;SDS011;6344;49.932;8.308;2024-03-29T04:23:46;5.27;;;4.27;;
12556;SDS011;6344;49.932;8.308;2024-03-29T04:26:13;6.30;;;4.70;;
12556;SDS011;6344;49.932;8.308;2024-03-29T04:28:39;5.83;;;5.23;;
12556;SDS011;6344;49.932;8.308;2024-03-29T04:31:06;6.27;;;4.80;;
12556;SDS011;6344;49.932;8.308;2024-03-29T04:33:32;5.27;;;4.33;;
12556;SDS011;6344;49.932;8.308;2024-03-29T04:36:00;4.37;;;3.97;;
12556;SDS011;6344;49.932;8.308;2024-03-29T04:38:26;4.97;;;4.10;;
12556;SDS011;6344;49.932;8.308;2024-03-29T04:40:55;4.43;;;4.03;;
12556;SDS011;6344;49.932;8.308;2024-03-29T04:43:23;6.03;;;4.60;;
12556;SDS011;6344;49.932;8.308;2024-03-29T04:45:50;5.37;;;4.20;;
12556;SDS011;6344;49.932;8.308;2024-03-29T04:48:17;6.10;;;5.10;;
12556;SDS011;6344;49.932;8.308;2024-03-29T04:50:44;4.77;;;4.37;;
12556;SDS011;6344;49.932;8.308;2024-03-29T04:53:11;5.23;;;4.83;;
12556;SDS011;6344;49.932;8.308;2024-03-29T04:55:39;4.20;;;3.70;;
12556;SDS011;6344;49.932;8.308;2024-03-29T04:58:08;3.60;;;3.13;;
12556;SDS011;6344;49.932;8.308;2024-03-29T05:00:35;3.83;;;3.43;;
12556;SDS011;6344;49.932;8.308;2024-03-29T05:03:02;3.97;;;3.60;;
12556;SDS011;6344;49.932;8.308;2024-03-29T05:05:29;2.90;;;2.70;;
12556;SDS011;6344;49.932;8.308;2024-03-29T05:07:57;3.43;;;3.13;;
12556;SDS011;6344;49.932;8.308;2024-03-29T05:10:24;3.43;;;2.80;;
12556;SDS011;6344;49.932;8.308;2024-03-29T05:12:51;2.80;;;2.60;;
12556;SDS011;6344;49.932;8.308;2024-03-29T05:15:20;3.47;;;3.17;;
12556;SDS011;6344;49.932;8.308;2024-03-29T05:17:47;3.30;;;3.00;;
12556;SDS011;6344;49.932;8.308;2024-03-29T05:20:14;5.20;;;2.50;;
12556;SDS011;6344;49.932;8.308;2024-03-29T05:22:41;5.33;;;2.60;;
12556;SDS011;6344;49.932;8.308;2024-03-29T05:25:08;7.93;;;3.10;;
12556;SDS011;6344;49.932;8.308;2024-03-29T05:27:35;2.40;;;2.20;;
12556;SDS011;6344;49.932;8.308;2024-03-29T05:30:03;2.30;;;2.10;;
12556;SDS011;6344;49.932;8.308;2024-03-29T05:32:31;2.37;;;2.17;;
12556;SDS011;6344;49.932;8.308;2024-03-29T05:34:59;2.20;;;2.00;;
12556;SDS011;6344;49.932;8.308;2024-03-29T05:37:26;2.30;;;2.10;;
12556;SDS011;6344;49.932;8.308;2024-03-29T05:39:53;2.60;;;2.30;;
12556;SDS011;6344;49.932;8.308;2024-03-29T05:42:24;2.30;;;2.10;;
12556;SDS011;6344;49.932;8.308;2024-03-29T05:44:52;2.40;;;2.20;;
12556;SDS011;6344;49.932;8.308;2024-03-29T05:47:19;2.97;;;2.20;;
12556;SDS011;6344;49.932;8.308;2024-03-29T05:49:47;2.20;;;2.10;;
12556;SDS011;6344;49.932;8.308;2024-03-29T05:52:14;3.00;;;2.47;;
12556;SDS011;6344;49.932;8.308;2024-03-29T05:54:42;2.77;;;2.57;;
12556;SDS011;6344;49.932;8.308;2024-03-29T05:57:09;2.60;;;2.40;;
12556;SDS011;6344;49.932;8.308;2024-03-29T05:59:36;2.37;;;1.80;;
12556;SDS011;6344;49.932;8.308;2024-03-29T06:02:04;3.90;;;2.57;;
12556;SDS011;6344;49.932;8.308;2024-03-29T06:04:31;2.67;;;2.30;;
12556;SDS011;6344;49.932;8.308;2024-03-29T06:06:59;4.23;;;2.37;;
12556;SDS011;6344;49.932;8.308;2024-03-29T06:09:26;4.90;;;2.50;;
12556;SDS011;6344;49.932;8.308;2024-03-29T06:11:54;2.40;;;2.20;;
12556;SDS011;6344;49.932;8.308;2024-03-29T06:14:21;2.67;;;2.47;;
12556;SDS011;6344;49.932;8.308;2024-03-29T06:17:06;2.50;;;2.07;;
12556;SDS011;6344;49.932;8.308;2024-03-29T06:19:51;5.40;;;4.20;;
12556;SDS011;6344;49.932;8.308;2024-03-29T06:22:22;4.37;;;3.53;;
12556;SDS011;6344;49.932;8.308;2024-03-29T06:24:50;4.33;;;3.37;;
12556;SDS011;6344;49.932;8.308;2024-03-29T06:27:18;4.80;;;3.13;;
12556;SDS011;6344;49.932;8.308;2024-03-29T06:29:47;3.10;;;2.90;;
12556;SDS011;6344;49.932;8.308;2024-03-29T06:32:15;3.20;;;2.93;;
12556;SDS011;6344;49.932;8.308;2024-03-29T06:34:43;2.73;;;2.53;;
12556;SDS011;6344;49.932;8.308;2024-03-29T06:37:10;2.60;;;2.40;;
12556;SDS011;6344;49.932;8.308;2024-03-29T06:39:38;3.20;;;2.53;;
12556;SDS011;6344;49.932;8.308;2024-03-29T06:42:07;2.53;;;2.33;;
12556;SDS011;6344;49.932;8.308;2024-03-29T06:44:34;2.87;;;2.60;;
12556;SDS011;6344;49.932;8.308;2024-03-29T06:47:02;3.10;;;1.77;;
12556;SDS011;6344;49.932;8.308;2024-03-29T06:49:29;4.23;;;2.40;;
12556;SDS011;6344;49.932;8.308;2024-03-29T06:51:57;4.60;;;2.23;;
12556;SDS011;6344;49.932;8.308;2024-03-29T06:54:26;2.77;;;2.57;;
12556;SDS011;6344;49.932;8.308;2024-03-29T06:56:54;3.80;;;2.97;;
12556;SDS011;6344;49.932;8.308;2024-03-29T06:59:22;2.23;;;2.03;;
12556;SDS011;6344;49.932;8.308;2024-03-29T07:01:49;6.13;;;2.87;;
12556;SDS011;6344;49.932;8.308;2024-03-29T07:04:17;2.07;;;1.93;;
12556;SDS011;6344;49.932;8.308;2024-03-29T07:06:45;3.50;;;2.30;;
12556;SDS011;6344;49.932;8.308;2024-03-29T07:09:16;2.80;;;2.60;;
12556;SDS011;6344;49.932;8.308;2024-03-29T07:11:43;3.00;;;2.50;;
12556;SDS011;6344;49.932;8.308;2024-03-29T07:14:11;2.43;;;2.00;;
12556;SDS011;6344;49.932;8.308;2024-03-29T07:16:38;2.57;;;2.37;;
12556;SDS011;6344;49.932;8.308;2024-03-29T07:19:05;2.80;;;2.40;;
12556;SDS011;6344;49.932;8.308;2024-03-29T07:21:32;2.20;;;2.00;;
12556;SDS011;6344;49.932;8.308;2024-03-29T07:23:59;4.47;;;2.80;;
12556;SDS011;6344;49.932;8.308;2024-03-29T07:26:27;2.70;;;2.50;;
12556;SDS011;6344;49.932;8.308;2024-03-29T07:28:54;3.23;;;2.43;;
12556;SDS011;6344;49.932;8.308;2024-03-29T07:31:22;2.87;;;2.40;;
12556;SDS011;6344;49.932;8.308;2024-03-29T07:33:49;2.90;;;2.70;;
12556;SDS011;6344;49.932;8.308;2024-03-29T07:36:16;3.77;;;2.73;;
12556;SDS011;6344;49.932;8.308;2024-03-29T07:38:43;3.33;;;2.70;;
12556;SDS011;6344;49.932;8.308;2024-03-29T07:41:11;3.20;;;2.43;;
12556;SDS011;6344;49.932;8.308;2024-03-29T07:43:38;3.03;;;2.53;;
12556;SDS011;6344;49.932;8.308;2024-03-29T07:46:06;2.53;;;2.33;;
12556;SDS011;6344;49.932;8.308;2024-03-29T07:48:35;3.60;;;2.40;;
12556;SDS011;6344;49.932;8.308;2024-03-29T07:51:02;2.93;;;2.13;;
12556;SDS011;6344;49.932;8.308;2024-03-29T07:53:29;2.90;;;2.03;;
12556;SDS011;6344;49.932;8.308;2024-03-29T07:55:57;2.10;;;2.00;;
12556;SDS011;6344;49.932;8.308;2024-03-29T07:58:24;3.10;;;2.90;;
12556;SDS011;6344;49.932;8.308;2024-03-29T08:00:51;3.73;;;3.40;;
12556;SDS011;6344;49.932;8.308;2024-03-29T08:03:19;4.60;;;4.20;;
12556;SDS011;6344;49.932;8.308;2024-03-29T08:05:56;5.13;;;4.20;;
12556;SDS011;6344;49.932;8.308;2024-03-29T08:08:23;4.97;;;4.10;;
12556;SDS011;6344;49.932;8.308;2024-03-29T08:10:52;4.00;;;3.50;;
12556;SDS011;6344;49.932;8.308;2024-03-29T08:13:19;3.90;;;3.40;;
12556;SDS011;6344;49.932;8.308;2024-03-29T08:15:47;4.33;;;3.23;;
12556;SDS011;6344;49.932;8.308;2024-03-29T08:18:14;4.70;;;4.30;;
12556;SDS011;6344;49.932;8.308;2024-03-29T08:20:41;4.30;;;3.80;;
12556;SDS011;6344;49.932;8.308;2024-03-29T08:23:10;3.53;;;3.23;;
12556;SDS011;6344;49.932;8.308;2024-03-29T08:25:37;3.40;;;3.10;;
12556;SDS011;6344;49.932;8.308;2024-03-29T08:28:04;4.77;;;4.37;;
12556;SDS011;6344;49.932;8.308;2024-03-29T08:30:31;4.73;;;4.33;;
12556;SDS011;6344;49.932;8.308;2024-03-29T08:33:01;5.57;;;3.73;;
12556;SDS011;6344;49.932;8.308;2024-03-29T08:35:28;4.60;;;4.20;;
12556;SDS011;6344;49.932;8.308;2024-03-29T08:37:55;5.60;;;4.23;;
12556;SDS011;6344;49.932;8.308;2024-03-29T08:40:23;5.90;;;5.00;;
12556;SDS011;6344;49.932;8.308;2024-03-29T08:42:50;4.53;;;4.13;;
12556;SDS011;6344;49.932;8.308;2024-03-29T08:45:17;5.03;;;4.53;;
12556;SDS011;6344;49.932;8.308;2024-03-29T08:47:45;4.57;;;4.13;;
12556;SDS011;6344;49.932;8.308;2024-03-29T08:50:12;4.80;;;4.40;;
12556;SDS011;6344;49.932;8.308;2024-03-29T08:52:40;4.97;;;4.47;;
12556;SDS011;6344;49.932;8.308;2024-03-29T08:55:07;6.13;;;4.50;;
12556;SDS011;6344;49.932;8.308;2024-03-29T08:57:36;4.83;;;4.33;;
12556;SDS011;6344;49.932;8.308;2024-03-29T09:00:03;5.20;;;4.70;;
12556;SDS011;6344;49.932;8.308;2024-03-29T09:02:31;6.00;;;5.50;;
12556;SDS011;6344;49.932;8.308;2024-03-29T09:04:59;4.67;;;4.27;;
12556;SDS011;6344;49.932;8.308;2024-03-29T09:07:26;6.20;;;4.80;;
12556;SDS011;6344;49.932;8.308;2024-03-29T09:09:53;5.50;;;5.00;;
12556;SDS011;6344;49.932;8.308;2024-03-29T09:12:20;4.80;;;4.50;;
12556;SDS011;6344;49.932;8.308;2024-03-29T09:14:49;4.70;;;4.30;;
12556;SDS011;6344;49.932;8.308;2024-03-29T09:17:17;5.20;;;4.70;;
12556;SDS011;6344;49.932;8.308;2024-03-29T09:19:44;5.33;;;4.83;;
12556;SDS011;6344;49.932;8.308;2024-03-29T09:22:11;5.13;;;4.73;;
12556;SDS011;6344;49.932;8.308;2024-03-29T09:24:38;5.33;;;4.93;;
12556;SDS011;6344;49.932;8.308;2024-03-29T09:27:05;6.53;;;6.00;;
12556;SDS011;6344;49.932;8.308;2024-03-29T09:29:32;4.60;;;4.20;;
12556;SDS011;6344;49.932;8.308;2024-03-29T09:32:01;5.73;;;5.23;;
12556;SDS011;6344;49.932;8.308;2024-03-29T09:34:28;7.63;;;5.60;;
12556;SDS011;6344;49.932;8.308;2024-03-29T09:36:55;6.10;;;5.50;;
12556;SDS011;6344;49.932;8.308;2024-03-29T09:39:23;5.20;;;4.80;;
12556;SDS011;6344;49.932;8.308;2024-03-29T09:41:50;5.97;;;5.43;;
12556;SDS011;6344;49.932;8.308;2024-03-29T09:44:18;5.60;;;5.20;;
12556;SDS011;6344;49.932;8.308;2024-03-29T09:46:46;6.03;;;5.40;;
12556;SDS011;6344;49.932;8.308;2024-03-29T09:49:15;5.60;;;5.10;;
12556;SDS011;6344;49.932;8.308;2024-03-29T09:51:42;6.23;;;5.60;;
12556;SDS011;6344;49.932;8.308;2024-03-29T09:54:11;6.40;;;5.90;;
12556;SDS011;6344;49.932;8.308;2024-03-29T09:56:40;6.80;;;6.30;;
12556;SDS011;6344;49.932;8.308;2024-03-29T09:59:08;4.63;;;4.23;;
12556;SDS011;6344;49.932;8.308;2024-03-29T10:01:35;4.73;;;4.33;;
12556;SDS011;6344;49.932;8.308;2024-03-29T10:04:02;3.93;;;3.10;;
12556;SDS011;6344;49.932;8.308;2024-03-29T10:06:31;2.90;;;2.70;;
12556;SDS011;6344;49.932;8.308;2024-03-29T10:09:00;4.60;;;3.00;;
12556;SDS011;6344;49.932;8.308;2024-03-29T10:11:27;3.37;;;3.17;;
12556;SDS011;6344;49.932;8.308;2024-03-29T10:13:54;3.17;;;2.87;;
12556;SDS011;6344;49.932;8.308;2024-03-29T10:16:21;5.80;;;3.40;;
12556;SDS011;6344;49.932;8.308;2024-03-29T10:18:49;3.00;;;2.67;;
12556;SDS011;6344;49.932;8.308;2024-03-29T10:21:16;4.00;;;3.70;;
12556;SDS011;6344;49.932;8.308;2024-03-29T10:23:46;4.43;;;3.37;;
12556;SDS011;6344;49.932;8.308;2024-03-29T10:26:13;3.50;;;3.30;;
12556;SDS011;6344;49.932;8.308;2024-03-29T10:28:41;4.00;;;3.60;;
12556;SDS011;6344;49.932;8.308;2024-03-29T10:31:10;3.37;;;3.13;;
12556;SDS011;6344;49.932;8.308;2024-03-29T10:33:42;5.00;;;4.50;;
12556;SDS011;6344;49.932;8.308;2024-03-29T10:36:09;4.10;;;3.70;;
12556;SDS011;6344;49.932;8.308;2024-03-29T10:38:37;4.43;;;3.60;;
12556;SDS011;6344;49.932;8.308;2024-03-29T10:41:06;4.03;;;3.47;;
12556;SDS011;6344;49.932;8.308;2024-03-29T10:43:34;3.80;;;3.40;;
12556;SDS011;6344;49.932;8.308;2024-03-29T10:46:01;4.70;;;4.30;;
12556;SDS011;6344;49.932;8.308;2024-03-29T10:48:29;4.20;;;3.80;;
12556;SDS011;6344;49.932;8.308;2024-03-29T10:50:58;3.27;;;2.87;;
12556;SDS011;6344;49.932;8.308;2024-03-29T10:53:25;3.70;;;3.40;;
12556;SDS011;6344;49.932;8.308;2024-03-29T10:55:53;3.33;;;3.13;;
12556;SDS011;6344;49.932;8.308;2024-03-29T10:58:22;3.93;;;3.50;;
12556;SDS011;6344;49.932;8.308;2024-03-29T11:00:52;4.70;;;4.40;;
12556;SDS011;6344;49.932;8.308;2024-03-29T11:03:24;3.60;;;3.30;;
12556;SDS011;6344;49.932;8.308;2024-03-29T11:05:52;10.07;;;3.57;;
12556;SDS011;6344;49.932;8.308;2024-03-29T11:08:22;3.83;;;3.40;;
12556;SDS011;6344;49.932;8.308;2024-03-29T11:10:50;4.53;;;3.37;;
12556;SDS011;6344;49.932;8.308;2024-03-29T11:13:19;5.60;;;5.10;;
12556;SDS011;6344;49.932;8.308;2024-03-29T11:15:52;5.80;;;3.90;;
12556;SDS011;6344;49.932;8.308;2024-03-29T11:18:19;3.23;;;3.00;;
12556;SDS011;6344;49.932;8.308;2024-03-29T11:20:49;4.33;;;3.93;;
12556;SDS011;6344;49.932;8.308;2024-03-29T11:23:18;4.27;;;3.27;;
12556;SDS011;6344;49.932;8.308;2024-03-29T11:25:46;3.90;;;3.47;;
12556;SDS011;6344;49.932;8.308;2024-03-29T11:28:15;3.47;;;3.20;;
12556;SDS011;6344;49.932;8.308;2024-03-29T11:30:47;3.60;;;3.30;;
12556;SDS011;6344;49.932;8.308;2024-03-29T11:33:31;6.87;;;4.37;;
12556;SDS011;6344;49.932;8.308;2024-03-29T11:35:59;3.27;;;3.07;;
12556;SDS011;6344;49.932;8.308;2024-03-29T11:38:30;4.07;;;3.87;;
12556;SDS011;6344;49.932;8.308;2024-03-29T11:41:01;4.27;;;3.97;;
12556;SDS011;6344;49.932;8.308;2024-03-29T11:43:29;4.07;;;3.77;;
12556;SDS011;6344;49.932;8.308;2024-03-29T11:45:56;4.37;;;4.07;;
12556;SDS011;6344;49.932;8.308;2024-03-29T11:48:26;4.33;;;4.00;;
12556;SDS011;6344;49.932;8.308;2024-03-29T11:50:54;4.63;;;4.23;;
12556;SDS011;6344;49.932;8.308;2024-03-29T11:53:22;4.97;;;4.57;;
12556;SDS011;6344;49.932;8.308;2024-03-29T11:55:49;6.00;;;5.60;;
12556;SDS011;6344;49.932;8.308;2024-03-29T11:58:19;5.67;;;5.23;;
12556;SDS011;6344;49.932;8.308;2024-03-29T12:00:46;5.50;;;5.10;;
12556;SDS011;6344;49.932;8.308;2024-03-29T12:03:13;5.50;;;5.10;;
12556;SDS011;6344;49.932;8.308;2024-03-29T12:05:41;4.80;;;4.50;;
12556;SDS011;6344;49.932;8.308;2024-03-29T12:08:09;5.33;;;4.93;;
12556;SDS011;6344;49.932;8.308;2024-03-29T12:10:36;5.83;;;5.33;;
12556;SDS011;6344;49.932;8.308;2024-03-29T12:13:04;5.10;;;4.67;;
12556;SDS011;6344;49.932;8.308;2024-03-29T12:15:31;6.00;;;5.50;;
12556;SDS011;6344;49.932;8.308;2024-03-29T12:17:59;6.20;;;5.80;;
12556;SDS011;6344;49.932;8.308;2024-03-29T12:20:28;5.53;;;5.13;;
12556;SDS011;6344;49.932;8.308;2024-03-29T12:22:56;5.93;;;5.37;;
12556;SDS011;6344;49.932;8.308;2024-03-29T12:25:27;6.17;;;5.50;;
12556;SDS011;6344;49.932;8.308;2024-03-29T12:27:54;5.73;;;5.33;;
12556;SDS011;6344;49.932;8.308;2024-03-29T12:30:22;5.17;;;4.73;;
12556;SDS011;6344;49.932;8.308;2024-03-29T12:32:59;6.03;;;5.60;;
12556;SDS011;6344;49.932;8.308;2024-03-29T12:35:26;5.57;;;5.17;;
12556;SDS011;6344;49.932;8.308;2024-03-29T12:37:54;6.40;;;6.00;;
12556;SDS011;6344;49.932;8.308;2024-03-29T12:40:21;5.43;;;5.13;;
12556;SDS011;6344;49.932;8.308;2024-03-29T12:42:51;5.70;;;5.30;;
12556;SDS011;6344;49.932;8.308;2024-03-29T12:45:19;5.70;;;5.20;;
12556;SDS011;6344;49.932;8.308;2024-03-29T12:47:46;5.60;;;4.40;;
12556;SDS011;6344;49.932;8.308;2024-03-29T12:50:14;5.27;;;4.77;;
12556;SDS011;6344;49.932;8.308;2024-03-29T12:52:46;5.87;;;5.43;;
12556;SDS011;6344;49.932;8.308;2024-03-29T12:55:13;5.70;;;5.30;;
12556;SDS011;6344;49.932;8.308;2024-03-29T12:57:43;5.23;;;4.80;;
12556;SDS011;6344;49.932;8.308;2024-03-29T13:00:12;6.67;;;4.77;;
12556;SDS011;6344;49.932;8.308;2024-03-29T13:02:39;5.73;;;5.23;;
12556;SDS011;6344;49.932;8.308;2024-03-29T13:05:06;5.33;;;4.83;;
12556;SDS011;6344;49.932;8.308;2024-03-29T13:07:33;5.33;;;4.93;;
12556;SDS011;6344;49.932;8.308;2024-03-29T13:10:01;5.60;;;5.20;;
12556;SDS011;6344;49.932;8.308;2024-03-29T13:12:35;7.10;;;6.37;;
12556;SDS011;6344;49.932;8.308;2024-03-29T13:15:03;5.50;;;5.10;;
12556;SDS011;6344;49.932;8.308;2024-03-29T13:17:42;5.73;;;5.23;;
12556;SDS011;6344;49.932;8.308;2024-03-29T13:20:10;6.03;;;5.63;;
12556;SDS011;6344;49.932;8.308;2024-03-29T13:22:37;6.33;;;5.03;;
12556;SDS011;6344;49.932;8.308;2024-03-29T13:25:07;5.50;;;5.20;;
12556;SDS011;6344;49.932;8.308;2024-03-29T13:27:35;6.30;;;5.70;;
12556;SDS011;6344;49.932;8.308;2024-03-29T13:30:03;5.77;;;5.30;;
12556;SDS011;6344;49.932;8.308;2024-03-29T13:32:30;4.80;;;4.50;;
12556;SDS011;6344;49.932;8.308;2024-03-29T13:34:59;4.23;;;3.93;;
12556;SDS011;6344;49.932;8.308;2024-03-29T13:37:30;5.10;;;4.33;;
12556;SDS011;6344;49.932;8.308;2024-03-29T13:39:57;4.77;;;4.30;;
12556;SDS011;6344;49.932;8.308;2024-03-29T13:42:24;4.20;;;3.90;;
12556;SDS011;6344;49.932;8.308;2024-03-29T13:44:51;3.50;;;3.20;;
12556;SDS011;6344;49.932;8.308;2024-03-29T13:47:18;2.20;;;1.63;;
12556;SDS011;6344;49.932;8.308;2024-03-29T13:49:45;2.20;;;1.47;;
12556;SDS011;6344;49.932;8.308;2024-03-29T13:52:14;1.50;;;1.30;;
12556;SDS011;6344;49.932;8.308;2024-03-29T13:54:44;1.73;;;1.53;;
12556;SDS011;6344;49.932;8.308;2024-03-29T13:57:12;1.90;;;1.50;;
12556;SDS011;6344;49.932;8.308;2024-03-29T13:59:39;2.67;;;2.13;;
12556;SDS011;6344;49.932;8.308;2024-03-29T14:02:08;2.50;;;2.30;;
12556;SDS011;6344;49.932;8.308;2024-03-29T14:04:35;2.43;;;2.23;;
12556;SDS011;6344;49.932;8.308;2024-03-29T14:07:02;2.87;;;2.67;;
12556;SDS011;6344;49.932;8.308;2024-03-29T14:09:35;3.37;;;2.93;;
12556;SDS011;6344;49.932;8.308;2024-03-29T14:12:02;3.20;;;2.90;;
12556;SDS011;6344;49.932;8.308;2024-03-29T14:14:29;3.10;;;2.73;;
12556;SDS011;6344;49.932;8.308;2024-03-29T14:16:56;2.33;;;2.13;;
12556;SDS011;6344;49.932;8.308;2024-03-29T14:19:23;2.20;;;2.00;;
12556;SDS011;6344;49.932;8.308;2024-03-29T14:21:51;1.70;;;1.60;;
12556;SDS011;6344;49.932;8.308;2024-03-29T14:24:18;2.33;;;2.10;;
12556;SDS011;6344;49.932;8.308;2024-03-29T14:26:47;1.87;;;1.77;;
12556;SDS011;6344;49.932;8.308;2024-03-29T14:29:14;2.83;;;2.63;;
12556;SDS011;6344;49.932;8.308;2024-03-29T14:31:43;3.33;;;2.60;;
12556;SDS011;6344;49.932;8.308;2024-03-29T14:34:10;5.23;;;4.93;;
12556;SDS011;6344;49.932;8.308;2024-03-29T14:36:37;9.60;;;8.80;;
12556;SDS011;6344;49.932;8.308;2024-03-29T14:39:04;7.70;;;7.10;;
12556;SDS011;6344;49.932;8.308;2024-03-29T14:41:31;8.40;;;7.77;;
12556;SDS011;6344;49.932;8.308;2024-03-29T14:44:01;9.70;;;9.00;;
12556;SDS011;6344;49.932;8.308;2024-03-29T14:46:28;8.30;;;7.70;;
12556;SDS011;6344;49.932;8.308;2024-03-29T14:48:56;11.00;;;10.00;;
12556;SDS011;6344;49.932;8.308;2024-03-29T14:51:23;10.90;;;10.10;;
12556;SDS011;6344;49.932;8.308;2024-03-29T14:53:50;10.83;;;9.80;;
12556;SDS011;6344;49.932;8.308;2024-03-29T14:56:17;11.00;;;10.20;;
12556;SDS011;6344;49.932;8.308;2024-03-29T14:58:44;10.57;;;9.67;;
12556;SDS011;6344;49.932;8.308;2024-03-29T15:01:13;10.53;;;9.70;;
12556;SDS011;6344;49.932;8.308;2024-03-29T15:03:40;10.27;;;9.43;;